Lincoln, NE (68501)

11:33 AM CST on December 09, 2016 (GMT -0600)
59th & Franklin St. | | Change Station

Elev 1280 ft 40.79 °N, 96.64 °W | Updated 1 second ago

Overcast
Overcast
19.0 °F
Feels Like 6 °F
N
12.0
Wind Variable Wind from ESE
Gusts 22.0 mph

Today
High -- | Low -- °F
--% Chance of Precip.
Yesterday
High -- | Low -- °F
Precip. -- in
Pressure 30.69 in
Visibility 10.0 miles
Clouds Overcast 7500 ft
Windchill 6 °F
Dew Point 12 °F
Humidity 72%
Rainfall 0.00 in
Snow Depth Not available.
7:39 AM 4:58 PM
Waxing Gibbous, 75% visible
METAR KLNK 091654Z 10003KT 10SM OVC075 M09/M13 A3061 RMK AO2 SLP390 T10891128
Pressure 30.69 in
Visibility 10.0 miles
Clouds Overcast 7500 ft
Windchill 6 °F
Dew Point 12 °F
Humidity 72%
Rainfall 0.00 in
Snow Depth Not available.
7:39 AM 4:58 PM
Waxing Gibbous, 75% visible
METAR KLNK 091654Z 10003KT 10SM OVC075 M09/M13 A3061 RMK AO2 SLP390 T10891128

10-Day Weather Forecast

Almanac

Astronomy

Dec. 09, 2016 Rise Set
Actual Time
Civil Twilight
Nautical Twilight
Astronomical Twilight
Moon
Length of Visible Light
Length of Day
Tomorrow will be .
, % of the Moon is Illuminated

Today's Extremes

State Highs State Lows

Community

WunderPhotos

Upload Photos

1,956,462 photos uploaded!

WunderBlog® & News

Nearby

Air Quality

  Air Quality AQ Index Pollutant
Not available.

Snow Depth

Station Depth Elevation

Earthquake Activity

City Distance Mag. Time & Date
Minimum magnitude displayed is 2.5.

Coastal Water Temperatures

Place Temperature

Stations

Nearby Weather Stations

Station Location Temp. Windchill Dew Point Humidity Wind Precip. Elev Updated Type
                   

Watches & Warnings

There are currently no watches in effect.